Time;durP1;ratioP1;P1;durP2;ratioP2;P2;SDS_P1;SDS_P2;PMS_P1;PMS_P2;Temp;Humidity;BMP_temperature;BMP_pressure;BME280_temperature;BME280_humidity;BME280_pressure;Samples;Min_cycle;Max_cycle;Signal;HPM_P1;HPM_P2
2022/07/04 00:02:19;;;;;;;3.35;2.50;;;14.60;99.90;;;;;;5069768;28;20024;-54
2022/07/04 00:04:45;;;;;;;3.03;2.80;;;14.60;99.90;;;;;;5078015;28;20032;-55
2022/07/04 00:07:10;;;;;;;4.38;2.90;;;14.50;99.90;;;;;;5069503;28;20479;-51
2022/07/04 00:09:36;;;;;;;4.10;3.55;;;14.50;99.90;;;;;;5075121;28;20032;-49
2022/07/04 00:12:02;;;;;;;4.15;2.60;;;14.50;99.90;;;;;;5073508;28;20032;-54
2022/07/04 00:14:27;;;;;;;3.65;3.05;;;14.50;99.90;;;;;;5063491;28;20047;-50
2022/07/04 00:16:53;;;;;;;6.65;3.50;;;14.50;99.90;;;;;;5078454;28;20027;-52
2022/07/04 00:19:18;;;;;;;3.92;2.92;;;14.40;99.90;;;;;;5069803;28;20467;-49
2022/07/04 00:21:45;;;;;;;4.10;3.55;;;14.40;99.90;;;;;;5077089;28;20028;-49
2022/07/04 00:24:11;;;;;;;6.55;3.00;;;14.40;99.90;;;;;;5069373;28;20047;-49
2022/07/04 00:26:37;;;;;;;3.75;3.40;;;14.40;99.90;;;;;;5074523;28;20490;-53
2022/07/04 00:29:02;;;;;;;6.20;3.70;;;14.40;99.90;;;;;;5077630;28;20118;-50
2022/07/04 00:31:28;;;;;;;4.50;3.15;;;14.40;99.90;;;;;;5071658;28;20028;-55
2022/07/04 00:33:54;;;;;;;7.60;3.72;;;14.30;99.90;;;;;;5075315;28;20035;-49
2022/07/04 00:36:19;;;;;;;4.38;3.53;;;14.30;99.90;;;;;;5069171;28;20023;-49
2022/07/04 00:38:45;;;;;;;5.60;3.45;;;14.30;99.90;;;;;;5075251;28;20035;-51
2022/07/04 00:41:11;;;;;;;4.00;3.22;;;14.30;99.90;;;;;;5068679;28;20112;-52
2022/07/04 00:43:36;;;;;;;4.28;3.00;;;14.30;99.90;;;;;;5071167;28;20032;-55
2022/07/04 00:46:05;;;;;;;3.70;3.33;;;14.30;99.90;;;;;;5074642;28;20589;-50
2022/07/04 00:48:32;;;;;;;7.68;3.78;;;14.20;99.90;;;;;;5071919;28;20068;-52
2022/07/04 00:50:58;;;;;;;4.90;3.03;;;14.20;99.90;;;;;;5076353;28;20051;-53
2022/07/04 00:53:23;;;;;;;3.92;3.35;;;14.20;99.90;;;;;;5072295;28;20020;-50
2022/07/04 01:56:26;;;;;;;6.18;5.53;;;13.80;99.90;;;;;;5067618;28;20039;-53
2022/07/04 01:58:52;;;;;;;7.80;6.40;;;13.70;99.90;;;;;;5075413;28;20016;-55
2022/07/04 02:01:29;;;;;;;6.88;6.18;;;13.70;99.90;;;;;;5078500;28;20029;-53
2022/07/04 02:03:56;;;;;;;6.15;5.55;;;13.70;99.90;;;;;;5074100;28;20060;-54
2022/07/04 02:06:22;;;;;;;6.40;5.80;;;13.70;99.90;;;;;;5076800;28;20070;-54
2022/07/04 02:13:00;;;;;;;7.30;6.60;;;13.70;99.90;;;;;;5080622;28;20862;-51
2022/07/04 02:14:17;;;;;;;7.50;6.00;;;13.70;99.90;;;;;;5066411;28;20452;-54
2022/07/04 02:16:43;;;;;;;6.80;6.07;;;13.60;99.90;;;;;;5080685;28;20019;-50
2022/07/04 02:19:08;;;;;;;10.10;7.15;;;13.60;99.90;;;;;;5072424;28;20029;-54
2022/07/04 02:21:34;;;;;;;7.20;6.50;;;13.60;99.90;;;;;;5077464;28;20453;-54
2022/07/04 02:24:00;;;;;;;9.55;8.32;;;13.60;99.90;;;;;;5072067;28;20027;-51
2022/07/04 02:26:25;;;;;;;9.13;6.93;;;13.50;99.90;;;;;;5075168;28;20081;-49
2022/07/04 02:28:52;;;;;;;8.27;7.47;;;13.60;99.90;;;;;;5079160;28;20028;-48
2022/07/04 02:31:17;;;;;;;10.30;8.13;;;13.60;99.90;;;;;;5068641;28;20057;-48
2022/07/04 02:33:43;;;;;;;10.73;8.30;;;13.60;99.90;;;;;;5069876;28;20017;-48
2022/07/04 02:36:09;;;;;;;8.57;7.70;;;13.50;99.90;;;;;;5069885;28;20466;-49
2022/07/04 02:38:34;;;;;;;9.13;8.15;;;13.50;99.90;;;;;;5069730;28;20497;-48
2022/07/04 02:41:00;;;;;;;15.77;10.77;;;13.50;99.90;;;;;;5070262;28;20398;-49
2022/07/04 02:43:26;;;;;;;9.75;8.70;;;13.60;99.90;;;;;;5059500;28;20036;-48
2022/07/04 02:45:51;;;;;;;10.73;9.15;;;13.50;99.90;;;;;;5069835;28;20422;-50
2022/07/04 02:48:17;;;;;;;13.98;9.95;;;13.60;99.90;;;;;;5070095;28;20028;-50
2022/07/04 02:50:43;;;;;;;11.82;9.93;;;13.60;99.90;;;;;;5069727;28;20031;-48
2022/07/04 02:53:08;;;;;;;15.93;11.30;;;13.60;99.90;;;;;;5069231;28;20094;-51
2022/07/04 02:55:34;;;;;;;12.65;11.35;;;13.60;99.90;;;;;;5069717;28;20036;-48
2022/07/04 02:57:59;;;;;;;16.42;13.10;;;13.60;99.90;;;;;;5059995;28;20542;-48
2022/07/04 03:00:25;;;;;;;13.27;10.68;;;13.60;99.90;;;;;;5069546;28;20107;-51
2022/07/04 03:02:51;;;;;;;21.65;12.73;;;13.60;99.90;;;;;;5069605;28;20017;-50
2022/07/04 03:05:16;;;;;;;11.65;10.30;;;13.60;99.90;;;;;;5069834;28;20038;-48
2022/07/04 03:07:42;;;;;;;15.35;12.07;;;13.60;99.90;;;;;;5069490;28;20086;-49
2022/07/04 03:10:08;;;;;;;14.40;11.35;;;13.60;99.90;;;;;;5069283;28;20516;-51
2022/07/04 03:12:33;;;;;;;11.68;10.40;;;13.60;99.90;;;;;;5069307;28;20020;-50
2022/07/04 03:14:59;;;;;;;13.15;11.27;;;13.60;99.90;;;;;;5068069;28;20513;-53
2022/07/04 03:17:28;;;;;;;16.13;14.25;;;13.60;99.90;;;;;;5069241;28;20025;-50
2022/07/04 03:19:54;;;;;;;13.73;12.00;;;13.60;99.90;;;;;;5069228;28;20016;-50
2022/07/04 03:22:20;;;;;;;13.88;11.27;;;13.60;99.90;;;;;;5068776;28;20568;-54
2022/07/04 03:24:48;;;;;;;15.02;11.10;;;13.60;99.90;;;;;;5069304;28;20028;-50
2022/07/04 03:27:14;;;;;;;13.75;10.27;;;13.60;99.90;;;;;;5069373;28;20070;-52
2022/07/04 03:29:39;;;;;;;12.90;11.35;;;13.60;99.90;;;;;;5068775;28;20056;-52
2022/07/04 03:32:05;;;;;;;12.82;10.90;;;13.60;99.90;;;;;;5068959;28;20028;-50
2022/07/04 03:34:31;;;;;;;14.02;11.43;;;13.60;99.90;;;;;;5068737;28;20075;-48
2022/07/04 03:36:57;;;;;;;13.05;10.13;;;13.60;99.90;;;;;;5069082;28;20067;-50
2022/07/04 03:39:23;;;;;;;12.20;10.88;;;13.60;99.90;;;;;;5068911;28;20028;-52
2022/07/04 03:41:49;;;;;;;11.93;10.43;;;13.60;99.90;;;;;;5068891;28;20605;-51
2022/07/04 03:44:14;;;;;;;13.25;10.45;;;13.60;99.90;;;;;;5068683;28;20119;-51
2022/07/04 03:46:40;;;;;;;13.18;10.27;;;13.60;99.90;;;;;;5069407;28;20047;-50
2022/07/04 03:49:06;;;;;;;11.13;10.02;;;13.60;99.90;;;;;;5068976;28;20035;-51
2022/07/04 03:51:31;;;;;;;11.82;10.40;;;13.60;99.90;;;;;;5068521;28;20043;-51
2022/07/04 03:53:57;;;;;;;14.02;12.05;;;13.60;99.90;;;;;;5068629;28;20578;-48
2022/07/04 03:56:23;;;;;;;10.88;9.75;;;13.60;99.90;;;;;;5068374;28;20035;-49
2022/07/04 03:58:48;;;;;;;12.15;10.77;;;13.60;99.90;;;;;;5068956;28;20111;-49
2022/07/04 04:01:16;;;;;;;12.00;10.57;;;13.70;99.90;;;;;;5068511;28;20021;-49
2022/07/04 04:06:26;;;;;;;12.90;10.50;;;13.70;99.90;;;;;;5068715;28;20413;-54
2022/07/04 04:08:51;;;;;;;13.18;11.75;;;13.70;99.90;;;;;;5068639;28;20028;-55
2022/07/04 04:11:17;;;;;;;13.23;11.55;;;13.80;99.90;;;;;;5068020;28;20024;-51
2022/07/04 04:13:43;;;;;;;13.63;12.25;;;13.80;99.90;;;;;;5068675;28;20459;-52
2022/07/04 04:16:08;;;;;;;12.85;11.48;;;13.80;99.90;;;;;;5067515;28;20031;-54
2022/07/04 04:18:34;;;;;;;14.73;12.07;;;13.80;99.90;;;;;;5068530;28;20016;-55
2022/07/04 04:20:59;;;;;;;13.02;11.65;;;13.80;99.90;;;;;;5068757;28;20090;-51
2022/07/04 04:23:25;;;;;;;12.90;11.60;;;13.80;99.90;;;;;;5053344;28;20036;-53
2022/07/04 04:25:51;;;;;;;13.90;11.13;;;13.90;99.90;;;;;;5069788;28;20032;-51
2022/07/04 04:28:16;;;;;;;12.93;11.57;;;13.90;99.90;;;;;;5072372;28;20042;-52
2022/07/04 04:30:42;;;;;;;10.63;9.48;;;13.90;99.90;;;;;;5072285;28;20505;-54
2022/07/04 04:33:07;;;;;;;12.82;10.93;;;13.90;99.90;;;;;;5070972;28;20520;-54
2022/07/04 04:35:33;;;;;;;11.38;10.00;;;13.90;99.90;;;;;;5071442;28;20068;-55
2022/07/04 04:37:58;;;;;;;12.57;11.18;;;13.90;99.90;;;;;;5072000;28;20451;-52
2022/07/04 04:40:24;;;;;;;14.50;10.82;;;13.90;99.90;;;;;;5072090;28;20028;-51
2022/07/04 04:42:50;;;;;;;13.18;11.77;;;13.90;99.90;;;;;;5071321;28;20025;-52
2022/07/04 04:45:15;;;;;;;11.70;10.15;;;13.90;99.90;;;;;;5071449;28;20071;-55
2022/07/04 04:47:42;;;;;;;12.18;10.55;;;13.90;99.90;;;;;;5071933;28;20533;-52
2022/07/04 04:50:11;;;;;;;11.50;10.40;;;13.90;99.90;;;;;;5072207;28;20060;-50
2022/07/04 04:52:37;;;;;;;11.07;10.00;;;13.90;99.90;;;;;;5066366;28;20513;-54
2022/07/04 04:55:03;;;;;;;12.55;11.25;;;13.90;99.90;;;;;;5071649;28;20040;-53
2022/07/04 04:57:29;;;;;;;11.13;9.00;;;14.00;99.90;;;;;;5071782;28;20035;-53
2022/07/04 04:59:54;;;;;;;11.35;10.05;;;14.00;99.90;;;;;;5071923;28;20103;-51
2022/07/04 05:02:20;;;;;;;12.05;9.20;;;14.10;99.90;;;;;;5071186;28;20040;-49
2022/07/04 05:04:45;;;;;;;11.55;10.13;;;14.10;99.90;;;;;;5071978;28;20510;-49
2022/07/04 05:07:11;;;;;;;13.15;10.52;;;14.10;99.90;;;;;;5071467;28;20415;-52
2022/07/04 05:09:37;;;;;;;10.85;8.98;;;14.10;99.90;;;;;;5066586;28;20524;-52
2022/07/04 05:12:02;;;;;;;12.02;9.07;;;14.20;99.90;;;;;;5071523;28;20025;-52
2022/07/04 05:14:28;;;;;;;11.43;10.32;;;14.20;99.90;;;;;;5071073;28;20029;-53
2022/07/04 05:16:54;;;;;;;9.57;8.43;;;14.20;99.90;;;;;;5071163;28;20020;-54
2022/07/04 05:19:19;;;;;;;8.27;7.50;;;14.30;99.90;;;;;;5071679;28;20082;-52
2022/07/04 05:21:45;;;;;;;9.85;7.43;;;14.30;99.90;;;;;;5070533;28;20105;-52
2022/07/04 05:24:11;;;;;;;9.52;7.60;;;14.40;99.90;;;;;;5070866;28;20024;-55
2022/07/04 05:26:37;;;;;;;10.63;8.40;;;14.40;99.90;;;;;;5071401;28;20439;-55
2022/07/04 05:29:02;;;;;;;10.70;8.05;;;14.50;99.90;;;;;;5070994;28;20417;-52
2022/07/04 05:31:28;;;;;;;9.02;6.68;;;14.50;99.90;;;;;;5070820;28;20024;-55
2022/07/04 05:33:54;;;;;;;9.45;7.22;;;14.60;99.90;;;;;;5071256;28;20013;-53
2022/07/04 05:36:20;;;;;;;9.35;7.20;;;14.60;99.90;;;;;;5070479;28;20029;-53
2022/07/04 05:38:46;;;;;;;9.63;6.45;;;14.70;99.90;;;;;;5069546;28;20099;-54
2022/07/04 05:41:11;;;;;;;8.02;6.07;;;14.70;99.90;;;;;;5056707;28;20548;-53
2022/07/04 05:43:37;;;;;;;7.90;5.75;;;14.80;99.90;;;;;;5070560;28;20033;-50
2022/07/04 05:46:03;;;;;;;6.82;4.95;;;15.00;99.90;;;;;;5070971;28;20029;-53
2022/07/04 05:48:29;;;;;;;7.63;4.97;;;15.10;99.90;;;;;;5071521;28;20510;-51
2022/07/04 05:50:54;;;;;;;5.88;4.35;;;15.20;99.90;;;;;;5068274;28;20027;-56
2022/07/04 05:53:20;;;;;;;6.53;4.20;;;15.30;99.90;;;;;;5070720;28;20023;-52
2022/07/04 05:55:45;;;;;;;4.05;3.20;;;15.40;99.90;;;;;;5070600;28;20028;-53
2022/07/04 05:58:11;;;;;;;6.88;3.40;;;15.40;99.90;;;;;;5070979;28;20099;-54
2022/07/04 06:00:39;;;;;;;3.45;3.15;;;15.50;99.90;;;;;;5070677;28;20024;-56
2022/07/04 06:03:05;;;;;;;3.42;2.53;;;15.70;99.90;;;;;;5071083;28;20020;-53
2022/07/04 06:05:31;;;;;;;4.68;2.58;;;15.70;99.90;;;;;;5066473;28;20051;-55
2022/07/04 06:07:56;;;;;;;3.63;2.55;;;15.90;99.90;;;;;;5070853;28;20490;-53
2022/07/04 06:10:22;;;;;;;4.22;2.40;;;16.00;99.90;;;;;;5070896;28;20502;-58
2022/07/04 06:12:48;;;;;;;2.53;1.92;;;16.10;99.90;;;;;;5070750;28;20033;-58
2022/07/04 06:15:15;;;;;;;3.03;1.70;;;16.20;99.90;;;;;;5070290;28;20031;-54
2022/07/04 06:17:40;;;;;;;5.47;1.90;;;16.30;99.90;;;;;;5060468;28;20028;-59
2022/07/04 06:20:07;;;;;;;2.38;1.45;;;16.50;99.90;;;;;;5069488;28;20031;-59
2022/07/04 06:22:47;;;;;;;3.42;1.60;;;16.60;99.90;;;;;;5064790;28;20555;-58
2022/07/04 06:25:14;;;;;;;3.33;1.63;;;16.70;99.90;;;;;;5069506;28;20040;-60
2022/07/04 06:27:41;;;;;;;2.95;1.75;;;16.80;99.90;;;;;;5068535;28;20040;-57
2022/07/04 06:30:07;;;;;;;2.10;1.23;;;17.00;99.90;;;;;;5070425;28;20031;-58
2022/07/04 06:32:48;;;;;;;2.00;0.98;;;17.10;99.90;;;;;;5068632;28;20031;-58
2022/07/04 06:38:00;;;;;;;5.03;1.40;;;17.30;99.90;;;;;;5070230;28;20070;-58
2022/07/04 06:40:26;;;;;;;3.10;1.60;;;17.30;99.90;;;;;;5070257;28;20478;-55
2022/07/04 06:42:51;;;;;;;4.25;2.30;;;17.40;99.90;;;;;;5069518;28;20364;-55
2022/07/04 06:45:17;;;;;;;1.77;1.42;;;17.40;99.90;;;;;;5069849;28;20082;-57
2022/07/04 06:47:43;;;;;;;2.58;1.33;;;17.30;99.90;;;;;;5070180;28;20032;-58
2022/07/04 06:50:09;;;;;;;4.30;1.40;;;17.30;99.90;;;;;;5070243;28;20046;-55
2022/07/04 06:52:35;;;;;;;4.38;1.65;;;17.20;99.90;;;;;;5060184;28;20025;-56
2022/07/04 06:55:00;;;;;;;10.23;1.92;;;17.10;99.90;;;;;;5069839;28;20031;-55
2022/07/04 06:57:26;;;;;;;2.28;1.58;;;17.30;99.90;;;;;;5069569;28;20541;-59
2022/07/04 06:59:51;;;;;;;5.32;1.60;;;17.50;99.90;;;;;;5069897;28;20062;-59
2022/07/04 07:02:17;;;;;;;1.38;1.20;;;17.70;99.90;;;;;;5069650;28;20020;-58
2022/07/04 07:04:43;;;;;;;2.40;1.25;;;18.00;99.90;;;;;;5069583;28;20528;-53
2022/07/04 07:07:09;;;;;;;4.20;2.08;;;18.10;99.90;;;;;;5069710;28;20036;-57
2022/07/04 07:09:35;;;;;;;5.63;2.08;;;18.10;99.90;;;;;;5069748;28;20036;-58
2022/07/04 07:12:01;;;;;;;4.80;1.65;;;18.10;99.90;;;;;;5069258;28;20521;-59
2022/07/04 07:14:27;;;;;;;4.80;1.58;;;18.10;99.90;;;;;;5069054;28;20509;-59
2022/07/04 07:16:53;;;;;;;4.32;1.60;;;18.10;99.90;;;;;;5069309;28;20017;-59
2022/07/04 07:19:18;;;;;;;3.65;1.90;;;18.10;99.90;;;;;;5069205;28;20021;-59
2022/07/04 07:21:44;;;;;;;2.92;1.40;;;18.30;99.90;;;;;;5069196;28;20032;-58
2022/07/04 07:24:09;;;;;;;2.35;1.15;;;18.60;99.90;;;;;;5063753;28;20028;-60
2022/07/04 07:26:35;;;;;;;3.22;1.35;;;18.80;99.90;;;;;;5069464;28;20487;-56
2022/07/04 07:29:01;;;;;;;2.33;1.25;;;18.80;99.90;;;;;;5064683;28;20422;-57
2022/07/04 07:31:26;;;;;;;3.95;1.05;;;18.70;99.90;;;;;;5069108;28;20662;-56
2022/07/04 07:33:52;;;;;;;3.13;1.27;;;18.50;99.90;;;;;;5069065;28;20025;-57
2022/07/04 07:36:18;;;;;;;1.65;1.17;;;18.60;99.90;;;;;;5068996;28;20025;-59
2022/07/04 07:38:43;;;;;;;2.10;0.73;;;18.80;99.90;;;;;;5069333;28;20092;-57
2022/07/04 07:41:10;;;;;;;2.25;1.33;;;19.00;99.90;;;;;;5069210;28;20060;-59
2022/07/04 07:43:36;;;;;;;5.15;1.20;;;19.20;99.90;;;;;;5068613;28;20406;-58
2022/07/04 07:46:06;;;;;;;3.35;1.52;;;19.40;99.90;;;;;;5069213;28;20032;-62
2022/07/04 07:48:32;;;;;;;2.90;0.88;;;19.80;99.90;;;;;;5064031;28;20367;-58
2022/07/04 07:50:57;;;;;;;1.15;0.90;;;20.00;99.90;;;;;;5069004;28;20086;-58
2022/07/04 07:53:23;;;;;;;3.28;1.00;;;20.20;99.90;;;;;;5068971;28;20021;-56
2022/07/04 07:55:49;;;;;;;4.95;1.00;;;20.20;99.90;;;;;;5068682;28;20450;-56
2022/07/04 07:58:14;;;;;;;1.85;1.00;;;20.00;99.90;;;;;;5069176;28;20017;-59
2022/07/04 08:00:40;;;;;;;2.13;0.73;;;19.90;99.90;;;;;;5071185;28;20026;-58
2022/07/04 08:05:50;;;;;;;4.15;1.08;;;20.20;99.90;;;;;;5075467;28;20083;-56
2022/07/04 08:08:15;;;;;;;2.28;1.27;;;20.40;99.90;;;;;;5075998;28;20048;-59
2022/07/04 08:10:41;;;;;;;2.47;0.85;;;20.50;99.90;;;;;;5075412;28;20521;-58
2022/07/04 08:13:07;;;;;;;2.17;1.33;;;20.60;99.90;;;;;;5075314;28;20028;-56
2022/07/04 08:15:32;;;;;;;4.95;1.50;;;20.80;99.90;;;;;;5074952;28;20108;-59
2022/07/04 08:17:59;;;;;;;2.80;1.15;;;21.00;99.90;;;;;;5075451;28;20021;-58
2022/07/04 08:20:25;;;;;;;1.70;0.90;;;21.20;99.90;;;;;;5075503;28;20023;-58
2022/07/04 08:22:50;;;;;;;3.15;0.70;;;21.50;99.90;;;;;;5069598;28;20032;-60
2022/07/04 08:25:16;;;;;;;1.98;0.63;;;21.80;99.90;;;;;;5075238;28;20028;-60
2022/07/04 08:27:43;;;;;;;4.32;0.85;;;22.00;99.90;;;;;;5065227;28;20029;-57
2022/07/04 08:30:09;;;;;;;3.85;1.17;;;22.20;99.90;;;;;;5074622;28;20021;-58
2022/07/04 08:32:35;;;;;;;1.25;0.82;;;22.00;99.90;;;;;;5074848;28;20046;-59
2022/07/04 08:35:01;;;;;;;2.90;0.75;;;21.90;99.90;;;;;;5074089;28;20028;-60
2022/07/04 08:37:28;;;;;;;2.60;0.70;;;21.70;99.90;;;;;;5075201;28;20110;-58
2022/07/04 08:39:54;;;;;;;1.48;1.02;;;21.60;99.90;;;;;;5072495;28;20395;-59
2022/07/04 08:42:21;;;;;;;3.13;1.13;;;21.70;99.90;;;;;;5074837;28;20024;-60
2022/07/04 08:44:48;;;;;;;2.88;0.98;;;21.90;99.90;;;;;;5075113;28;20037;-59
2022/07/04 08:47:19;;;;;;;1.42;0.63;;;22.10;99.90;;;;;;5072246;28;20100;-59
2022/07/04 08:49:58;;;;;;;1.05;0.55;;;22.20;99.90;;;;;;5074645;28;20024;-58
2022/07/04 08:52:36;;;;;;;2.83;0.82;;;22.10;99.90;;;;;;5073858;28;20453;-57
2022/07/04 09:00:34;;;;;;;1.30;0.43;;;22.60;98.90;;;;;;5070928;28;20056;-54
2022/07/04 09:03:02;;;;;;;1.02;0.55;;;22.70;99.90;;;;;;5074181;28;20394;-58
2022/07/04 09:05:28;;;;;;;0.88;0.68;;;22.80;99.90;;;;;;5075095;28;20098;-58
2022/07/04 09:07:55;;;;;;;1.15;0.57;;;22.80;99.80;;;;;;5074405;28;20037;-59
2022/07/04 09:10:22;;;;;;;2.33;0.90;;;22.60;99.80;;;;;;5065508;28;20031;-58
2022/07/04 09:12:48;;;;;;;2.58;0.60;;;22.40;98.50;;;;;;5071155;28;20028;-55
2022/07/04 09:15:15;;;;;;;3.22;0.82;;;22.40;99.90;;;;;;5071716;28;20441;-58
2022/07/04 09:17:41;;;;;;;2.17;0.88;;;22.40;99.40;;;;;;5071939;28;20047;-56
2022/07/04 09:20:17;;;;;;;0.60;0.50;;;22.40;99.50;;;;;;5061986;28;20515;-59
2022/07/04 09:22:44;;;;;;;2.75;1.02;;;22.40;99.90;;;;;;5065719;28;20028;-58
2022/07/04 09:25:17;;;;;;;2.08;0.68;;;22.50;98.40;;;;;;5071110;28;20025;-55
2022/07/04 09:27:47;;;;;;;1.42;0.40;;;22.20;97.80;;;;;;5067423;28;20031;-52
2022/07/04 09:30:31;;;;;;;3.40;1.48;;;21.80;98.50;;;;;;5070551;28;20635;-57
2022/07/04 09:33:00;;;;;;;1.88;0.75;;;21.60;99.90;;;;;;5068543;28;20128;-58
2022/07/04 09:35:28;;;;;;;2.30;0.65;;;21.40;99.80;;;;;;5070805;28;20094;-55
2022/07/04 09:37:56;;;;;;;2.80;0.60;;;21.30;99.90;;;;;;5071046;28;20020;-55
2022/07/04 09:41:24;;;;;;;1.08;0.52;;;21.30;99.90;;;;;;5070777;28;20396;-57
2022/07/04 09:43:20;;;;;;;3.80;0.80;;;21.50;99.50;;;;;;5064351;28;20058;-58
2022/07/04 09:46:00;;;;;;;2.95;0.70;;;21.60;99.90;;;;;;5070786;28;20102;-57
2022/07/04 09:48:47;;;;;;;3.33;0.70;;;21.80;99.90;;;;;;5064772;28;20132;-61
2022/07/04 09:51:12;;;;;;;0.82;0.60;;;21.80;98.60;;;;;;5070043;28;20031;-53
2022/07/04 09:53:38;;;;;;;2.03;0.82;;;21.70;99.20;;;;;;5075872;28;20029;-55
2022/07/04 09:56:04;;;;;;;2.13;0.80;;;21.70;99.70;;;;;;5071121;28;20029;-58
2022/07/04 09:58:29;;;;;;;2.03;0.57;;;21.80;99.90;;;;;;5069847;28;20039;-51
2022/07/04 10:00:59;;;;;;;4.05;0.85;;;21.80;99.90;;;;;;5070751;28;20050;-56
2022/07/04 10:03:32;;;;;;;2.28;0.75;;;21.70;99.70;;;;;;5070629;28;20028;-52
2022/07/04 10:06:09;;;;;;;0.93;0.65;;;21.70;99.90;;;;;;5069650;28;20024;-56
2022/07/04 10:08:35;;;;;;;1.02;0.43;;;21.50;98.40;;;;;;5070765;28;20021;-56
2022/07/04 10:11:03;;;;;;;1.73;0.60;;;21.50;98.80;;;;;;5056034;28;20409;-58
2022/07/04 10:13:28;;;;;;;2.22;0.60;;;21.60;99.90;;;;;;5070280;28;20089;-55
2022/07/04 10:15:54;;;;;;;3.15;0.60;;;21.50;99.90;;;;;;5070282;28;20040;-58
2022/07/04 10:18:22;;;;;;;1.52;0.60;;;21.50;99.40;;;;;;5069796;28;20032;-54
2022/07/04 10:20:49;;;;;;;1.13;0.55;;;21.50;99.60;;;;;;5070443;28;20074;-54
2022/07/04 10:23:16;;;;;;;2.13;0.70;;;21.50;98.20;;;;;;5064487;28;20078;-55
2022/07/04 10:25:42;;;;;;;1.23;0.40;;;21.50;99.90;;;;;;5070273;28;20024;-58
2022/07/04 10:28:08;;;;;;;1.52;0.45;;;21.50;98.40;;;;;;5070105;28;20036;-53
2022/07/04 10:30:40;;;;;;;5.15;0.60;;;21.60;99.00;;;;;;5070362;28;20487;-54
2022/07/04 10:33:08;;;;;;;1.58;0.45;;;21.60;98.30;;;;;;5069614;28;20041;-54
2022/07/04 10:35:57;;;;;;;1.38;0.43;;;21.80;99.40;;;;;;5069875;28;20028;-56
2022/07/04 10:38:27;;;;;;;1.48;0.40;;;22.00;99.80;;;;;;5068654;28;20021;-49
2022/07/04 10:41:01;;;;;;;0.47;0.38;;;22.30;97.70;;;;;;5070041;28;20016;-56
2022/07/04 10:43:30;;;;;;;1.75;0.60;;;22.50;98.90;;;;;;5069283;28;20107;-53
2022/07/04 10:46:02;;;;;;;3.95;0.40;;;22.70;98.90;;;;;;5060130;28;20040;-53
2022/07/04 10:48:28;;;;;;;2.45;0.57;;;22.70;98.60;;;;;;5069325;28;20025;-55
2022/07/04 10:51:05;;;;;;;2.60;0.70;;;22.70;97.40;;;;;;5066984;28;20068;-55
2022/07/04 10:53:32;;;;;;;1.52;0.77;;;22.60;96.10;;;;;;5069456;28;20044;-56
2022/07/04 10:56:20;;;;;;;2.25;0.82;;;22.40;97.20;;;;;;5069284;28;20052;-56
2022/07/04 10:58:46;;;;;;;1.00;0.60;;;22.30;97.10;;;;;;5069423;28;20030;-56
2022/07/04 11:01:13;;;;;;;1.63;0.70;;;22.10;97.20;;;;;;5069471;28;20013;-57
2022/07/04 11:03:48;;;;;;;0.35;0.30;;;22.10;97.30;;;;;;5069357;28;20372;-58
2022/07/04 11:06:32;;;;;;;1.67;0.40;;;22.10;98.30;;;;;;5069786;28;20021;-58
2022/07/04 11:09:17;;;;;;;0.65;0.40;;;22.30;99.60;;;;;;5059133;28;20082;-58
2022/07/04 11:11:56;;;;;;;1.48;0.70;;;22.40;98.00;;;;;;5069434;28;20052;-58
2022/07/04 11:14:40;;;;;;;0.63;0.38;;;22.40;96.30;;;;;;5066125;28;20020;-59
2022/07/04 11:17:13;;;;;;;1.80;0.55;;;22.30;96.80;;;;;;5068915;28;20035;-51
2022/07/04 11:19:39;;;;;;;1.00;0.63;;;22.10;96.70;;;;;;5069249;28;20033;-56
2022/07/04 11:22:07;;;;;;;3.10;0.77;;;21.90;97.10;;;;;;5066582;28;20032;-55
2022/07/04 11:24:33;;;;;;;2.15;0.60;;;21.80;97.20;;;;;;5065422;28;20044;-55
2022/07/04 11:27:00;;;;;;;1.95;0.70;;;21.80;97.60;;;;;;5069535;28;20086;-55
2022/07/04 11:29:26;;;;;;;2.15;0.90;;;21.70;97.40;;;;;;5069021;28;20074;-50
2022/07/04 11:31:52;;;;;;;1.95;0.70;;;21.70;98.40;;;;;;5068654;28;20051;-57
2022/07/04 11:34:19;;;;;;;0.60;0.60;;;21.80;98.00;;;;;;5068869;28;20024;-54
2022/07/04 11:36:47;;;;;;;1.10;0.45;;;21.80;98.10;;;;;;5068651;28;20112;-53
2022/07/04 11:39:19;;;;;;;1.05;0.80;;;21.90;99.00;;;;;;5068004;28;20016;-55
2022/07/04 11:47:21;;;;;;;2.42;0.85;;;22.60;96.90;;;;;;5106380;22;20043;-50
2022/07/04 11:49:55;;;;;;;1.60;0.40;;;22.60;95.10;;;;;;5062016;28;20025;-57
2022/07/04 11:52:23;;;;;;;1.92;0.68;;;22.40;95.70;;;;;;5086837;28;20027;-50
2022/07/04 11:54:50;;;;;;;1.17;0.80;;;22.30;95.60;;;;;;5088617;28;20107;-56
2022/07/04 11:57:22;;;;;;;1.75;0.52;;;22.30;95.50;;;;;;5085996;28;20017;-53
2022/07/04 12:00:04;;;;;;;1.60;0.85;;;22.20;94.30;;;;;;5088639;28;20048;-55
2022/07/04 12:02:30;;;;;;;1.40;0.93;;;21.90;95.40;;;;;;5067610;28;20020;-55
2022/07/04 12:04:57;;;;;;;1.98;0.50;;;21.80;95.60;;;;;;5079203;28;20087;-52
2022/07/04 12:07:25;;;;;;;1.88;0.90;;;21.80;96.00;;;;;;5080832;28;20027;-56
2022/07/04 12:09:52;;;;;;;1.10;0.50;;;21.80;96.90;;;;;;5080189;28;20119;-55
2022/07/04 12:12:18;;;;;;;2.30;0.77;;;21.80;96.30;;;;;;5083819;28;20162;-57
2022/07/04 12:15:02;;;;;;;4.95;0.70;;;22.00;95.90;;;;;;5087030;28;20103;-54
2022/07/04 12:17:33;;;;;;;2.10;0.70;;;22.10;96.40;;;;;;5082250;28;20024;-55
2022/07/04 12:20:19;;;;;;;1.00;0.60;;;22.30;96.60;;;;;;5068533;28;20595;-52
2022/07/04 12:22:56;;;;;;;1.58;0.63;;;22.30;94.80;;;;;;5086336;28;20040;-49
2022/07/04 12:25:37;;;;;;;1.55;0.60;;;22.40;95.50;;;;;;5063757;28;20021;-54
2022/07/04 12:28:04;;;;;;;0.68;0.55;;;22.50;95.50;;;;;;5062824;28;20035;-53
2022/07/04 12:30:35;;;;;;;0.88;0.60;;;22.70;95.80;;;;;;5065699;28;20025;-52
2022/07/04 12:33:02;;;;;;;0.52;0.50;;;22.90;96.00;;;;;;5080622;28;20024;-56
2022/07/04 12:35:45;;;;;;;4.13;1.45;;;23.20;95.90;;;;;;5087448;28;20035;-52
2022/07/04 12:38:13;;;;;;;1.77;0.65;;;23.30;94.20;;;;;;5085455;28;20021;-50
2022/07/04 12:40:51;;;;;;;2.45;0.60;;;23.20;94.40;;;;;;5088137;28;20497;-56
2022/07/04 12:43:17;;;;;;;0.80;0.60;;;22.90;94.30;;;;;;5080746;28;20028;-53
2022/07/04 12:45:49;;;;;;;2.65;0.98;;;23.00;93.50;;;;;;5085328;28;20103;-54
2022/07/04 12:48:21;;;;;;;4.03;0.75;;;22.90;94.50;;;;;;5082829;28;20085;-57
2022/07/04 12:50:47;;;;;;;3.20;0.82;;;22.90;94.00;;;;;;5088683;28;20251;-54
2022/07/04 12:53:13;;;;;;;1.70;0.90;;;22.70;93.60;;;;;;5085684;28;20116;-54
2022/07/04 12:55:41;;;;;;;2.28;0.68;;;22.50;93.40;;;;;;5084577;28;20107;-54
2022/07/04 12:58:07;;;;;;;1.58;0.82;;;22.30;94.70;;;;;;5091194;28;20051;-58
2022/07/04 13:00:33;;;;;;;1.95;0.70;;;22.20;94.90;;;;;;5087078;28;20479;-50
2022/07/04 13:02:59;;;;;;;1.52;0.73;;;22.00;96.30;;;;;;5090658;28;20028;-54
2022/07/04 13:05:24;;;;;;;1.25;0.90;;;21.90;96.10;;;;;;5086264;28;20032;-52
2022/07/04 13:07:50;;;;;;;1.20;0.50;;;21.90;97.00;;;;;;5089862;28;20051;-56
2022/07/04 13:10:16;;;;;;;2.80;1.08;;;21.80;96.20;;;;;;5091102;28;20020;-53
2022/07/04 13:12:41;;;;;;;0.93;0.70;;;21.60;96.80;;;;;;5087186;28;20028;-52
2022/07/04 13:15:11;;;;;;;3.90;1.00;;;21.60;97.10;;;;;;5090029;28;20626;-53
2022/07/04 13:17:37;;;;;;;2.33;0.88;;;21.50;97.50;;;;;;5091214;28;20490;-53
2022/07/04 13:20:03;;;;;;;2.40;1.25;;;21.40;97.40;;;;;;5089115;28;20024;-56
2022/07/04 13:22:29;;;;;;;2.67;1.02;;;21.40;98.10;;;;;;5085525;28;20024;-54
2022/07/04 13:25:00;;;;;;;2.00;1.00;;;21.40;98.20;;;;;;5070152;28;20082;-54
2022/07/04 13:27:28;;;;;;;2.40;1.00;;;21.50;97.50;;;;;;5073208;28;20132;-49
2022/07/04 13:29:53;;;;;;;1.42;0.77;;;21.50;97.30;;;;;;5091504;28;20028;-53
2022/07/04 13:32:19;;;;;;;1.70;0.60;;;21.40;96.90;;;;;;5085825;28;20025;-52
2022/07/04 13:34:45;;;;;;;1.90;0.75;;;21.50;97.30;;;;;;5083268;28;20099;-52
2022/07/04 13:37:10;;;;;;;2.28;1.20;;;21.50;97.20;;;;;;5086556;28;20020;-55
2022/07/04 13:39:36;;;;;;;2.10;0.98;;;21.60;97.50;;;;;;5086653;28;20363;-51
2022/07/04 13:42:02;;;;;;;3.30;1.20;;;21.60;97.00;;;;;;5087775;28;20422;-49
2022/07/04 13:44:27;;;;;;;3.90;1.02;;;21.70;97.20;;;;;;5079045;28;20402;-51
2022/07/04 13:46:53;;;;;;;1.73;0.80;;;21.70;96.90;;;;;;5086867;28;20129;-55
2022/07/04 13:49:18;;;;;;;2.33;0.98;;;21.70;97.20;;;;;;5067864;28;20064;-51
2022/07/04 13:51:44;;;;;;;2.30;1.05;;;21.70;97.30;;;;;;5061145;28;20100;-50
2022/07/04 13:54:10;;;;;;;3.17;1.30;;;21.80;97.60;;;;;;5090087;28;20400;-51
2022/07/04 13:56:36;;;;;;;1.83;0.90;;;22.00;98.30;;;;;;5082713;28;20028;-55
2022/07/04 13:59:02;;;;;;;1.73;0.90;;;22.10;96.90;;;;;;5089909;28;20024;-51
2022/07/04 14:01:27;;;;;;;2.85;1.35;;;22.10;96.80;;;;;;5085847;28;20093;-55
2022/07/04 14:03:53;;;;;;;3.95;1.27;;;22.00;96.90;;;;;;5088284;28;20084;-57
2022/07/04 14:06:18;;;;;;;2.67;1.00;;;22.00;97.00;;;;;;5070943;28;20013;-52
2022/07/04 14:08:45;;;;;;;3.10;1.13;;;22.00;98.40;;;;;;5087742;28;20040;-56